Time;durP1;ratioP1;P1;durP2;ratioP2;P2;SDS_P1;SDS_P2;PMS_P1;PMS_P2;Temp;Humidity;BMP_temperature;BMP_pressure;BME280_temperature;BME280_humidity;BME280_pressure;Samples;Min_cycle;Max_cycle;Signal;HPM_P1;HPM_P2
2022/08/23 00:00:44;;;;;;;15.00;13.57;;;;;;;24.74;100.00;100782.63;2056294;28;20206;-69
2022/08/23 00:01:47;;;;;;;14.97;13.47;;;;;;;24.61;100.00;100762.59;2056632;28;20430;-68
2022/08/23 00:02:48;;;;;;;16.13;13.93;;;;;;;24.31;100.00;100715.66;2055635;28;20222;-69
2022/08/23 00:03:50;;;;;;;14.83;13.43;;;;;;;24.55;100.00;100770.34;2054952;28;20187;-69
2022/08/23 00:04:51;;;;;;;16.17;13.67;;;;;;;24.75;100.00;100783.38;2054785;28;20201;-69
2022/08/23 00:05:52;;;;;;;16.03;13.60;;;;;;;24.75;100.00;100778.47;2054510;28;20191;-69
2022/08/23 00:06:54;;;;;;;16.37;13.70;;;;;;;24.76;100.00;100774.34;2055496;28;20183;-69
2022/08/23 00:07:54;;;;;;;15.70;14.13;;;;;;;24.72;100.00;100779.53;2056238;28;20218;-69
2022/08/23 00:08:56;;;;;;;15.73;13.17;;;;;;;24.72;100.00;100775.94;2055901;28;20265;-68
2022/08/23 00:09:56;;;;;;;14.30;12.90;;;;;;;24.59;100.00;100762.38;2055617;28;20199;-69
2022/08/23 00:10:57;;;;;;;16.27;12.70;;;;;;;24.70;100.00;100772.84;2055493;28;20680;-69
2022/08/23 00:12:20;;;;;;;14.97;12.60;;;;;;;24.67;100.00;100771.84;2055744;28;20292;-69
2022/08/23 00:13:21;;;;;;;15.47;13.60;;;;;;;24.62;100.00;100761.31;2056138;28;20684;-69
2022/08/23 00:14:26;;;;;;;16.03;14.10;;;;;;;24.70;100.00;100773.63;2055098;28;20187;-68
2022/08/23 00:15:28;;;;;;;14.57;13.17;;;;;;;24.67;100.00;100773.91;2053967;28;20182;-68
2022/08/23 00:16:29;;;;;;;14.90;13.47;;;;;;;24.67;100.00;100780.34;2055125;28;20197;-69
2022/08/23 00:17:29;;;;;;;15.57;13.63;;;;;;;24.64;100.00;100780.63;2055805;28;20764;-69
2022/08/23 00:18:30;;;;;;;15.27;13.73;;;;;;;24.63;100.00;100779.88;2055380;28;20258;-69
2022/08/23 00:19:31;;;;;;;16.40;13.10;;;;;;;24.58;100.00;100775.00;2055873;28;20658;-69
2022/08/23 00:20:32;;;;;;;15.00;13.50;;;;;;;24.46;100.00;100765.00;2055743;28;20187;-69
2022/08/23 00:21:35;;;;;;;17.27;13.90;;;;;;;24.49;100.00;100777.34;2055802;28;20245;-68
2022/08/23 00:22:37;;;;;;;16.43;14.03;;;;;;;24.43;100.00;100780.22;2054753;28;20194;-69
2022/08/23 00:23:38;;;;;;;20.83;13.90;;;;;;;24.43;100.00;100782.28;2055389;28;20191;-69
2022/08/23 00:24:39;;;;;;;17.37;14.77;;;;;;;24.13;100.00;100736.09;2055324;28;20641;-69
2022/08/23 00:25:41;;;;;;;15.60;14.00;;;;;;;24.46;100.00;100781.25;2045501;29;20250;-69
2022/08/23 00:26:48;;;;;;;17.37;14.73;;;;;;;24.46;100.00;100786.91;2046538;28;20196;-69
2022/08/23 00:27:49;;;;;;;15.93;13.23;;;;;;;24.48;100.00;100793.59;2055984;28;20219;-69
2022/08/23 00:28:49;;;;;;;18.50;13.63;;;;;;;24.41;100.00;100782.03;2055403;28;20175;-69
2022/08/23 00:29:53;;;;;;;16.97;13.37;;;;;;;24.22;100.00;100761.28;2055826;28;20219;-69
2022/08/23 00:30:54;;;;;;;16.80;13.07;;;;;;;24.46;100.00;100784.81;2055497;28;20278;-68
2022/08/23 00:31:55;;;;;;;16.07;12.97;;;;;;;24.44;100.00;100775.31;2055792;28;20191;-69
2022/08/23 00:32:55;;;;;;;15.37;13.73;;;;;;;24.29;100.00;100758.66;2055587;28;20187;-69
2022/08/23 00:33:56;;;;;;;15.23;13.60;;;;;;;24.47;100.00;100780.69;2054983;28;20218;-68
2022/08/23 00:34:58;;;;;;;16.27;13.97;;;;;;;24.45;100.00;100783.28;2054334;28;20255;-68
2022/08/23 00:35:58;;;;;;;15.27;13.60;;;;;;;24.42;100.00;100778.66;2054877;28;20881;-69
2022/08/23 00:36:59;;;;;;;15.47;13.40;;;;;;;24.36;100.00;100777.94;2055126;28;20641;-68
2022/08/23 00:38:00;;;;;;;16.87;13.53;;;;;;;23.94;100.00;100723.84;2055402;28;20653;-69
2022/08/23 00:39:00;;;;;;;17.17;13.73;;;;;;;24.13;100.00;100755.91;2055695;28;20190;-69
2022/08/23 00:40:02;;;;;;;14.87;13.10;;;;;;;24.04;100.00;100759.84;2055394;28;20198;-69
2022/08/23 00:41:03;;;;;;;17.87;13.67;;;;;;;24.11;100.00;100772.69;2055633;28;20194;-69
2022/08/23 00:47:38;;;;;;;15.73;13.97;;;;;;;24.12;100.00;100791.97;2055189;28;20273;-69
2022/08/23 00:48:07;;;;;;;17.13;14.03;;;;;;;24.03;100.00;100808.47;2048158;28;20717;-69
2022/08/23 00:49:11;;;;;;;15.27;13.07;;;;;;;23.93;100.00;100787.41;2057202;28;20203;-69
2022/08/23 00:50:23;;;;;;;16.83;13.23;;;;;;;24.03;100.00;100816.97;2057139;28;20198;-69
2022/08/23 00:51:40;;;;;;;14.70;13.10;;;;;;;24.05;100.00;100814.41;2057238;28;20671;-69
2022/08/23 00:53:07;;;;;;;18.43;13.20;;;;;;;23.72;100.00;100767.13;2056571;28;20187;-69
2022/08/23 00:54:09;;;;;;;15.10;13.30;;;;;;;24.06;100.00;100811.03;2056824;28;20508;-69
2022/08/23 00:55:10;;;;;;;15.03;13.20;;;;;;;24.07;100.00;100809.75;2055940;28;20183;-69
2022/08/23 00:56:14;;;;;;;21.50;14.20;;;;;;;24.07;100.00;100809.75;2057299;28;20195;-69
2022/08/23 00:57:18;;;;;;;17.80;13.20;;;;;;;24.06;100.00;100804.63;2056595;28;20194;-69
2022/08/23 00:58:20;;;;;;;18.30;12.93;;;;;;;24.08;100.00;100814.13;2057133;28;20257;-69
2022/08/23 00:59:21;;;;;;;18.60;13.30;;;;;;;23.68;100.00;100755.31;2056900;28;20191;-69
2022/08/23 01:00:22;;;;;;;17.27;13.20;;;;;;;24.07;100.00;100817.47;2056761;28;20712;-69
2022/08/23 01:01:23;;;;;;;15.70;12.53;;;;;;;24.04;100.00;100810.00;2057065;28;20199;-69
2022/08/23 01:02:24;;;;;;;15.67;12.93;;;;;;;23.55;100.00;100749.44;2056946;28;20217;-69
2022/08/23 01:03:27;;;;;;;18.03;13.07;;;;;;;24.03;100.00;100834.72;2055827;28;20190;-69
2022/08/23 01:04:36;;;;;;;22.37;13.37;;;;;;;23.72;100.00;100780.50;2047346;28;20279;-69
2022/08/23 01:05:46;;;;;;;14.73;12.53;;;;;;;24.05;100.00;100826.47;2047833;28;20667;-69
2022/08/23 01:06:58;;;;;;;18.97;13.30;;;;;;;24.07;100.00;100826.75;2056354;28;20183;-69
2022/08/23 01:07:59;;;;;;;14.73;13.13;;;;;;;24.01;100.00;100823.13;2056905;28;20187;-69
2022/08/23 01:09:08;;;;;;;13.90;12.33;;;;;;;24.05;100.00;100832.13;2056936;28;20183;-69
2022/08/23 01:10:16;;;;;;;17.43;13.00;;;;;;;24.05;100.00;100826.47;2056042;28;20265;-69
2022/08/23 01:11:43;;;;;;;15.20;13.60;;;;;;;24.01;100.00;100833.72;2057286;28;20595;-68
2022/08/23 01:12:49;;;;;;;14.80;13.27;;;;;;;23.54;100.00;100766.94;2057075;28;20187;-69
2022/08/23 01:13:57;;;;;;;15.27;13.40;;;;;;;23.75;100.00;100804.94;2055484;28;20734;-69
2022/08/23 01:15:08;;;;;;;17.97;13.83;;;;;;;23.96;100.00;100845.81;2055670;28;20179;-68
2022/08/23 01:16:15;;;;;;;16.20;14.60;;;;;;;23.45;100.00;100776.47;2056479;28;20735;-68
2022/08/23 01:17:28;;;;;;;15.00;13.30;;;;;;;23.90;100.00;100862.81;2055971;28;20206;-69
2022/08/23 01:18:30;;;;;;;17.77;13.17;;;;;;;23.62;100.00;100805.50;2058090;28;20223;-69
2022/08/23 01:20:03;;;;;;;17.73;13.10;;;;;;;23.88;100.00;100847.59;2056923;28;20260;-69
2022/08/23 01:21:29;;;;;;;16.50;12.90;;;;;;;23.87;100.00;100860.22;2055713;28;20202;-69
2022/08/23 01:22:35;;;;;;;19.00;12.37;;;;;;;23.85;100.00;100848.66;2047719;28;20227;-69
2022/08/23 01:23:44;;;;;;;19.93;13.13;;;;;;;23.75;100.00;100848.16;2048971;28;20203;-69
2022/08/23 01:24:45;;;;;;;15.07;13.33;;;;;;;23.68;100.00;100845.06;2055980;28;20207;-69
2022/08/23 01:25:45;;;;;;;19.93;14.33;;;;;;;23.68;100.00;100848.69;2057386;28;20209;-69
2022/08/23 01:26:46;;;;;;;20.93;13.00;;;;;;;23.65;100.00;100852.53;2056531;28;20210;-69
2022/08/23 01:27:48;;;;;;;16.60;13.57;;;;;;;23.64;100.00;100848.16;2054940;28;20202;-69
2022/08/23 01:28:49;;;;;;;14.93;12.93;;;;;;;23.47;100.00;100830.47;2056032;28;20672;-69
2022/08/23 01:29:50;;;;;;;18.93;13.50;;;;;;;23.54;100.00;100846.16;2057616;28;20727;-69
2022/08/23 01:30:51;;;;;;;18.13;12.73;;;;;;;23.62;100.00;100853.59;2056689;28;20269;-69
2022/08/23 01:31:54;;;;;;;18.33;13.73;;;;;;;23.59;100.00;100848.19;2057025;28;20245;-69
2022/08/23 01:33:00;;;;;;;18.83;13.20;;;;;;;23.64;100.00;100858.75;2058075;28;20179;-69
2022/08/23 01:34:07;;;;;;;15.33;13.33;;;;;;;22.78;100.00;100738.19;2056552;28;20267;-69
2022/08/23 01:35:08;;;;;;;16.10;13.23;;;;;;;23.62;100.00;100861.28;2046807;28;20239;-69
2022/08/23 01:36:12;;;;;;;15.93;12.70;;;;;;;23.62;100.00;100861.28;2049978;28;20195;-69
2022/08/23 01:37:13;;;;;;;16.80;13.40;;;;;;;23.61;100.00;100859.75;2048362;28;20191;-69
2022/08/23 01:38:14;;;;;;;18.43;13.70;;;;;;;23.11;100.00;100789.06;2048177;28;20195;-69
2022/08/23 01:39:15;;;;;;;16.37;13.67;;;;;;;23.62;100.00;100862.06;2056853;28;20197;-69
2022/08/23 01:40:16;;;;;;;17.27;13.33;;;;;;;23.37;100.00;100831.22;2056560;28;20194;-69
2022/08/23 01:41:16;;;;;;;15.03;12.63;;;;;;;23.57;100.00;100862.84;2057059;28;20186;-69
2022/08/23 01:42:17;;;;;;;17.63;13.27;;;;;;;23.62;100.00;100867.72;2056780;28;20677;-68
2022/08/23 01:43:20;;;;;;;15.37;13.00;;;;;;;23.66;100.00;100868.25;2056797;28;20201;-69
2022/08/23 01:44:20;;;;;;;17.40;14.13;;;;;;;23.41;100.00;100837.41;2056384;28;20215;-69
2022/08/23 01:45:21;;;;;;;18.07;13.43;;;;;;;23.64;100.00;100872.88;2055982;28;20191;-69
2022/08/23 01:46:23;;;;;;;14.47;13.03;;;;;;;23.62;100.00;100864.13;2056396;28;20201;-69
2022/08/23 01:47:24;;;;;;;17.93;13.60;;;;;;;23.08;100.00;100795.00;2056569;28;20187;-68
2022/08/23 01:48:24;;;;;;;16.53;13.60;;;;;;;23.67;100.00;100881.09;2056651;28;20485;-69
2022/08/23 01:49:25;;;;;;;16.87;13.70;;;;;;;23.71;100.00;100875.97;2057283;28;20210;-69
2022/08/23 01:50:26;;;;;;;14.47;13.00;;;;;;;23.67;100.00;100869.78;2056446;28;20183;-69
2022/08/23 01:51:27;;;;;;;18.47;13.43;;;;;;;23.73;100.00;100875.41;2056906;28;20187;-69
2022/08/23 01:52:27;;;;;;;19.27;13.70;;;;;;;23.48;100.00;100837.66;2056467;28;20661;-69
2022/08/23 01:53:28;;;;;;;19.53;13.77;;;;;;;23.75;100.00;100887.00;2058127;28;20328;-69
2022/08/23 01:54:28;;;;;;;15.17;12.80;;;;;;;23.77;100.00;100888.03;2056151;28;20191;-68
2022/08/23 01:55:29;;;;;;;13.33;11.97;;;;;;;23.79;100.00;100896.75;2054847;28;20293;-69
2022/08/23 01:56:32;;;;;;;17.70;12.80;;;;;;;23.56;100.00;100860.53;2056752;28;20587;-69
2022/08/23 01:57:33;;;;;;;15.03;12.97;;;;;;;23.47;100.00;100852.31;2055481;28;20246;-69
2022/08/23 01:58:35;;;;;;;16.73;12.80;;;;;;;23.78;100.00;100888.78;2057420;28;20550;-69
2022/08/23 01:59:36;;;;;;;14.77;12.63;;;;;;;23.37;100.00;100823.53;2056628;28;20202;-69
2022/08/23 02:00:40;;;;;;;15.63;12.73;;;;;;;23.79;100.00;100884.69;2057425;28;20193;-69
2022/08/23 02:01:40;;;;;;;17.17;13.00;;;;;;;23.80;100.00;100889.81;2056644;28;20270;-69
2022/08/23 02:02:41;;;;;;;14.93;13.30;;;;;;;23.81;100.00;100890.59;2056646;28;20198;-69
2022/08/23 02:03:43;;;;;;;17.07;12.93;;;;;;;23.82;100.00;100890.09;2056781;28;20668;-69
2022/08/23 02:04:44;;;;;;;15.47;12.40;;;;;;;23.84;100.00;100889.56;2055754;28;20195;-69
2022/08/23 02:05:44;;;;;;;16.33;13.80;;;;;;;23.87;100.00;100889.31;2046897;29;20204;-69
2022/08/23 02:06:45;;;;;;;14.33;12.83;;;;;;;23.76;100.00;100871.56;2047484;29;20188;-69
2022/08/23 02:07:46;;;;;;;15.03;13.20;;;;;;;23.88;100.00;100882.34;2056709;28;20185;-69
2022/08/23 02:09:02;;;;;;;17.73;12.97;;;;;;;23.93;100.00;100886.47;2056515;28;20277;-69
2022/08/23 02:10:03;;;;;;;14.03;12.17;;;;;;;23.91;100.00;100886.22;2056018;28;20241;-69
2022/08/23 02:11:23;;;;;;;14.43;12.20;;;;;;;23.31;100.00;100805.03;2056303;28;20671;-69
2022/08/23 02:12:24;;;;;;;15.00;12.13;;;;;;;23.47;100.00;100841.00;2055752;28;20182;-69
2022/08/23 02:13:25;;;;;;;16.57;12.50;;;;;;;23.75;100.00;100884.94;2056662;28;20708;-68
2022/08/23 02:14:25;;;;;;;14.43;12.93;;;;;;;23.78;100.00;100878.25;2056400;28;20219;-69
2022/08/23 02:15:26;;;;;;;17.07;13.33;;;;;;;23.79;100.00;100876.22;2054757;28;20198;-69
2022/08/23 02:16:30;;;;;;;14.17;12.23;;;;;;;23.42;100.00;100819.94;2055761;28;20198;-69
2022/08/23 02:17:30;;;;;;;17.80;12.93;;;;;;;23.82;100.00;100880.81;2057401;28;20215;-69
2022/08/23 02:18:31;;;;;;;21.50;12.97;;;;;;;23.86;100.00;100875.66;2056563;28;20195;-69
2022/08/23 02:19:33;;;;;;;20.37;13.60;;;;;;;23.82;100.00;100877.97;2056616;28;20198;-69
2022/08/23 02:20:33;;;;;;;18.60;12.97;;;;;;;23.80;100.00;100880.56;2055258;28;20195;-69
2022/08/23 02:21:35;;;;;;;20.17;12.93;;;;;;;23.81;100.00;100880.06;2056823;28;20179;-69
2022/08/23 02:22:38;;;;;;;17.43;13.00;;;;;;;23.29;100.00;100799.88;2056930;28;20175;-69
2022/08/23 02:23:38;;;;;;;21.60;12.40;;;;;;;23.44;100.00;100822.25;2056114;28;20943;-69
2022/08/23 02:24:44;;;;;;;17.83;12.30;;;;;;;23.82;100.00;100875.16;2055433;28;20932;-69
2022/08/23 02:25:45;;;;;;;17.20;12.67;;;;;;;23.26;100.00;100800.13;2056484;28;20664;-69
2022/08/23 02:26:49;;;;;;;13.87;12.10;;;;;;;23.86;100.00;100879.28;2054754;28;20578;-69
2022/08/23 02:27:49;;;;;;;15.73;11.87;;;;;;;23.44;100.00;100811.69;2056296;28;20199;-69
2022/08/23 02:28:53;;;;;;;13.77;11.47;;;;;;;23.68;100.00;100854.34;2056629;28;20311;-69
2022/08/23 02:29:53;;;;;;;22.07;12.17;;;;;;;23.54;100.00;100818.63;2056480;28;20205;-69
2022/08/23 02:30:54;;;;;;;14.97;11.47;;;;;;;23.80;100.00;100864.34;2057151;28;20194;-69
2022/08/23 02:31:55;;;;;;;18.70;11.80;;;;;;;23.84;100.00;100884.66;2057367;28;20281;-69
2022/08/23 02:32:56;;;;;;;16.40;11.00;;;;;;;23.51;100.00;100822.50;2056239;28;20183;-69
2022/08/23 02:33:56;;;;;;;15.73;12.00;;;;;;;23.86;100.00;100864.34;2056299;28;20191;-69
2022/08/23 02:34:57;;;;;;;19.00;11.93;;;;;;;23.88;100.00;100868.19;2055146;28;20234;-69
2022/08/23 02:35:57;;;;;;;22.20;11.87;;;;;;;23.90;100.00;100868.47;2055660;28;20547;-69
2022/08/23 02:36:58;;;;;;;14.73;11.93;;;;;;;23.58;100.00;100818.34;2047149;29;20327;-69
2022/08/23 02:38:02;;;;;;;16.67;10.97;;;;;;;23.89;100.00;100866.94;2040429;29;20255;-69
2022/08/23 02:39:05;;;;;;;14.00;11.67;;;;;;;23.41;100.00;100794.97;2049231;28;20234;-69
2022/08/23 02:40:06;;;;;;;16.20;11.67;;;;;;;23.71;100.00;100849.72;2057010;28;20262;-69
2022/08/23 02:41:06;;;;;;;13.93;10.80;;;;;;;23.66;100.00;100842.00;2055632;28;20274;-69
2022/08/23 02:42:08;;;;;;;17.30;11.30;;;;;;;23.11;100.00;100783.44;2056110;28;20206;-69
2022/08/23 02:43:10;;;;;;;13.50;11.47;;;;;;;23.10;100.00;100781.09;2047813;29;20192;-69
2022/08/23 02:44:11;;;;;;;14.40;11.17;;;;;;;23.70;100.00;100863.06;2047052;28;20222;-69
2022/08/23 02:45:11;;;;;;;13.00;11.53;;;;;;;23.73;100.00;100867.72;2055736;28;20664;-69
2022/08/23 02:46:12;;;;;;;14.63;11.33;;;;;;;23.75;100.00;100872.84;2047090;29;20255;-69
2022/08/23 02:47:13;;;;;;;13.70;11.50;;;;;;;23.67;100.00;100863.34;2039010;29;20248;-69
2022/08/23 02:48:13;;;;;;;13.00;11.57;;;;;;;23.77;100.00;100888.03;2047797;28;20672;-69
2022/08/23 02:49:14;;;;;;;14.87;11.30;;;;;;;23.81;100.00;100882.09;2056499;28;20193;-69
2022/08/23 02:50:15;;;;;;;15.83;11.80;;;;;;;23.80;100.00;100889.81;2056277;28;20191;-69
2022/08/23 02:51:17;;;;;;;13.17;10.97;;;;;;;23.80;100.00;100886.22;2056066;28;20187;-69
2022/08/23 02:52:17;;;;;;;13.57;11.17;;;;;;;23.46;100.00;100828.94;2056323;28;20183;-69
2022/08/23 02:53:18;;;;;;;13.83;11.53;;;;;;;23.42;100.00;100811.44;2057291;28;20229;-69
2022/08/23 02:54:18;;;;;;;12.70;11.50;;;;;;;23.88;100.00;100878.72;2055799;28;20668;-69
2022/08/23 02:55:20;;;;;;;13.43;12.13;;;;;;;23.88;100.00;100890.84;2054582;28;20690;-69
2022/08/23 02:56:21;;;;;;;14.30;11.73;;;;;;;23.92;100.00;100879.28;2055949;28;20221;-69
2022/08/23 02:57:22;;;;;;;14.77;11.30;;;;;;;23.93;100.00;100890.09;2055971;28;20271;-69
2022/08/23 02:58:23;;;;;;;15.37;11.13;;;;;;;23.44;100.00;100817.34;2056053;28;20198;-68
2022/08/23 02:59:24;;;;;;;14.23;11.13;;;;;;;23.94;100.00;100880.31;2057062;28;20326;-69
2022/08/23 03:00:25;;;;;;;13.63;11.13;;;;;;;23.24;100.00;100780.09;2055938;28;20230;-69
2022/08/23 03:01:29;;;;;;;12.93;11.03;;;;;;;23.94;100.00;100877.47;2056292;28;20243;-68
2022/08/23 03:02:29;;;;;;;13.43;10.77;;;;;;;23.93;100.00;100883.66;2056222;28;20187;-69
2022/08/23 03:03:30;;;;;;;15.07;11.67;;;;;;;23.92;100.00;100879.28;2056033;28;20197;-69
2022/08/23 03:04:31;;;;;;;16.63;11.50;;;;;;;23.86;100.00;100878.50;2055660;28;20215;-69
2022/08/23 03:05:32;;;;;;;12.63;11.27;;;;;;;23.46;100.00;100811.97;2054362;28;20187;-69
2022/08/23 03:06:33;;;;;;;16.37;12.20;;;;;;;23.89;100.00;100886.00;2056535;28;20722;-69
2022/08/23 03:07:33;;;;;;;13.63;11.37;;;;;;;23.80;100.00;100866.41;2056189;28;20230;-69
2022/08/23 03:08:34;;;;;;;13.20;11.63;;;;;;;23.44;100.00;100811.69;2055936;28;20213;-69
2022/08/23 03:09:34;;;;;;;12.60;10.77;;;;;;;23.88;100.00;100882.34;2047793;29;20214;-69
2022/08/23 03:10:36;;;;;;;12.63;11.43;;;;;;;23.91;100.00;100872.84;2046867;28;20190;-69
2022/08/23 03:11:43;;;;;;;12.33;10.83;;;;;;;23.59;100.00;100823.50;2056648;28;20214;-69
2022/08/23 03:12:44;;;;;;;13.07;11.60;;;;;;;23.50;100.00;100806.78;2055223;28;20640;-68
2022/08/23 03:13:44;;;;;;;13.10;10.93;;;;;;;23.90;100.00;100876.97;2055737;28;20624;-69
2022/08/23 03:14:45;;;;;;;12.20;10.87;;;;;;;23.89;100.00;100878.25;2055182;28;20184;-69
2022/08/23 03:15:46;;;;;;;13.20;11.37;;;;;;;23.88;100.00;100873.06;2055294;28;20191;-68
2022/08/23 03:16:46;;;;;;;12.33;11.13;;;;;;;23.31;100.00;100802.97;2055378;28;20367;-69
2022/08/23 03:17:47;;;;;;;13.27;11.83;;;;;;;23.82;100.00;100877.97;2055940;28;20187;-69
2022/08/23 03:18:48;;;;;;;14.93;11.80;;;;;;;23.76;100.00;100863.88;2056001;28;20179;-69
2022/08/23 03:19:51;;;;;;;14.13;11.50;;;;;;;23.81;100.00;100880.06;2056256;28;20652;-69
2022/08/23 03:20:51;;;;;;;26.67;13.13;;;;;;;23.83;100.00;100877.47;2055985;28;20278;-69
2022/08/23 03:21:52;;;;;;;26.40;12.33;;;;;;;23.79;100.00;100876.97;2055957;28;20194;-69
2022/08/23 03:22:52;;;;;;;27.67;13.37;;;;;;;23.36;100.00;100805.03;2056289;28;20199;-69
2022/08/23 03:23:53;;;;;;;27.10;13.60;;;;;;;23.77;100.00;100873.88;2055406;28;20191;-69
2022/08/23 03:24:54;;;;;;;29.50;13.20;;;;;;;23.76;100.00;100871.56;2046243;29;20207;-69
2022/08/23 03:25:56;;;;;;;23.63;11.77;;;;;;;23.74;100.00;100871.31;2046694;28;20219;-68
2022/08/23 03:26:57;;;;;;;23.00;11.30;;;;;;;23.81;100.00;100882.09;2055228;28;20194;-69
2022/08/23 03:28:03;;;;;;;17.97;10.93;;;;;;;23.35;100.00;100822.50;2055824;28;20222;-69
2022/08/23 03:29:03;;;;;;;16.67;11.53;;;;;;;23.80;100.00;100883.41;2056091;28;20749;-69
2022/08/23 03:30:05;;;;;;;16.53;11.00;;;;;;;23.82;100.00;100887.25;2056064;28;20688;-69
2022/08/23 03:31:07;;;;;;;15.57;10.90;;;;;;;23.80;100.00;100889.81;2055927;28;20199;-69
2022/08/23 03:32:08;;;;;;;14.33;10.73;;;;;;;23.81;100.00;100890.59;2055973;28;20218;-69
2022/08/23 03:33:08;;;;;;;12.07;10.67;;;;;;;23.59;100.00;100863.09;2056700;28;20197;-69
2022/08/23 03:34:09;;;;;;;17.27;10.57;;;;;;;23.36;100.00;100826.88;2055015;28;20637;-69
2022/08/23 03:35:10;;;;;;;13.30;10.90;;;;;;;23.73;100.00;100890.34;2054253;28;21790;-69
2022/08/23 03:36:11;;;;;;;14.60;10.40;;;;;;;23.74;100.00;100894.72;2055952;28;20834;-68
2022/08/23 03:37:12;;;;;;;11.47;10.37;;;;;;;23.63;100.00;100885.47;2055061;28;20190;-68
2022/08/23 03:38:13;;;;;;;13.63;10.50;;;;;;;23.58;100.00;100872.88;2056199;28;20217;-68
2022/08/23 03:39:14;;;;;;;11.90;10.67;;;;;;;23.16;100.00;100821.44;2056373;28;20711;-69
2022/08/23 03:40:14;;;;;;;12.10;10.67;;;;;;;23.75;100.00;100915.31;2055771;28;20639;-69
2022/08/23 03:41:16;;;;;;;11.70;10.50;;;;;;;23.75;100.00;100912.47;2056994;28;20197;-69
2022/08/23 03:42:17;;;;;;;13.93;11.20;;;;;;;23.72;100.00;100927.66;2055798;28;20199;-68
2022/08/23 03:43:18;;;;;;;14.77;11.57;;;;;;;23.71;100.00;100926.09;2055854;28;20223;-69
2022/08/23 03:44:19;;;;;;;13.67;11.20;;;;;;;23.69;100.00;100929.44;2055233;28;20214;-69
2022/08/23 03:45:19;;;;;;;16.17;11.73;;;;;;;23.69;100.00;100926.63;2054246;28;20190;-69
2022/08/23 03:46:23;;;;;;;13.10;11.73;;;;;;;23.30;100.00;100877.00;2055382;28;20178;-69
2022/08/23 03:47:23;;;;;;;15.97;11.47;;;;;;;23.18;100.00;100876.22;2055953;28;20187;-69
2022/08/23 03:48:24;;;;;;;15.90;11.30;;;;;;;23.31;100.00;100916.09;2047177;29;20441;-69
2022/08/23 03:49:25;;;;;;;17.07;11.70;;;;;;;23.04;100.00;100882.09;2047287;29;20629;-69
2022/08/23 03:50:27;;;;;;;15.83;11.73;;;;;;;23.42;100.00;100957.72;2055650;28;20198;-68
2022/08/23 03:51:29;;;;;;;14.17;12.10;;;;;;;22.85;100.00;100879.00;2055779;28;20570;-69
2022/08/23 03:52:30;;;;;;;15.60;12.70;;;;;;;23.35;100.00;100961.06;2055693;28;20199;-69
2022/08/23 03:53:30;;;;;;;15.53;12.60;;;;;;;23.18;100.00;100948.97;2057113;28;20230;-69
2022/08/23 03:54:31;;;;;;;14.07;12.50;;;;;;;23.29;100.00;100969.53;2054315;28;20195;-69
2022/08/23 03:55:31;;;;;;;17.47;13.17;;;;;;;23.08;100.00;100939.91;2054389;28;20207;-68
2022/08/23 03:56:35;;;;;;;20.40;12.60;;;;;;;23.09;100.00;100952.00;2054374;28;20191;-69
2022/08/23 03:57:36;;;;;;;13.50;12.10;;;;;;;23.30;100.00;100968.28;2055531;28;20195;-69
2022/08/23 03:58:36;;;;;;;15.50;11.87;;;;;;;23.30;100.00;100965.44;2055835;28;21022;-68
2022/08/23 03:59:39;;;;;;;13.97;11.93;;;;;;;23.30;100.00;100965.44;2056656;28;20270;-69
2022/08/23 04:00:39;;;;;;;14.37;12.80;;;;;;;22.85;100.00;100904.41;2055692;28;20700;-69
2022/08/23 04:01:40;;;;;;;13.30;11.47;;;;;;;23.31;100.00;100967.00;2047060;28;20617;-69
2022/08/23 04:02:40;;;;;;;15.63;12.17;;;;;;;23.35;100.00;100963.91;2047082;29;20190;-69
2022/08/23 04:03:42;;;;;;;14.50;11.67;;;;;;;23.12;100.00;100937.63;2055853;28;20183;-69
2022/08/23 04:04:43;;;;;;;16.47;12.00;;;;;;;23.00;100.00;100915.50;2054799;28;20203;-69
2022/08/23 04:05:43;;;;;;;16.33;11.70;;;;;;;23.00;100.00;100921.94;2055122;28;20469;-69
2022/08/23 04:06:44;;;;;;;18.33;11.50;;;;;;;22.83;100.00;100895.66;2056312;28;20199;-69
2022/08/23 04:07:45;;;;;;;13.43;11.70;;;;;;;22.95;100.00;100907.78;2056767;28;20664;-69
2022/08/23 04:08:46;;;;;;;16.37;11.73;;;;;;;23.39;100.00;100970.84;2055610;28;20564;-69
2022/08/23 04:09:46;;;;;;;16.83;11.10;;;;;;;23.42;100.00;100960.56;2055720;28;20712;-69
2022/08/23 04:10:46;;;;;;;18.13;11.23;;;;;;;22.90;100.00;100874.63;2055614;28;20273;-69
2022/08/23 04:11:47;;;;;;;17.33;11.50;;;;;;;23.10;100.00;100911.94;2056685;28;20270;-69
2022/08/23 04:12:48;;;;;;;14.20;11.50;;;;;;;23.30;100.00;100947.69;2055426;28;20572;-69
2022/08/23 04:13:49;;;;;;;13.77;10.50;;;;;;;23.53;100.00;100969.06;2055492;28;20190;-69
2022/08/23 04:14:49;;;;;;;12.20;9.80;;;;;;;23.54;100.00;100971.38;2054606;28;20194;-69
2022/08/23 04:15:50;;;;;;;17.73;11.43;;;;;;;23.31;100.00;100947.19;2055048;28;20514;-69
2022/08/23 04:16:50;;;;;;;18.53;11.97;;;;;;;23.58;100.00;100976.75;2055711;28;20226;-68
2022/08/23 04:17:51;;;;;;;13.63;9.77;;;;;;;23.24;100.00;100918.66;2056123;28;20194;-69
2022/08/23 04:18:51;;;;;;;12.23;10.23;;;;;;;23.63;100.00;100968.28;2055686;28;20229;-69
2022/08/23 04:19:52;;;;;;;14.73;10.30;;;;;;;23.53;100.00;100949.25;2056646;28;20625;-69
2022/08/23 04:20:52;;;;;;;14.33;10.57;;;;;;;23.66;100.00;100955.97;2055713;28;20198;-68
2022/08/23 04:21:53;;;;;;;13.33;9.93;;;;;;;23.77;100.00;100964.44;2055431;28;20535;-69
2022/08/23 04:22:54;;;;;;;11.87;10.03;;;;;;;23.47;100.00;100909.66;2055789;28;20182;-69
2022/08/23 04:23:55;;;;;;;14.20;10.33;;;;;;;23.80;100.00;100959.81;2055139;28;21139;-69
2022/08/23 04:24:55;;;;;;;15.60;10.47;;;;;;;23.54;100.00;100922.53;2050136;28;20199;-69
2022/08/23 04:25:56;;;;;;;19.17;10.50;;;;;;;23.76;100.00;100960.06;2053693;28;20199;-69
2022/08/23 04:26:57;;;;;;;22.40;10.90;;;;;;;23.76;100.00;100953.63;2043474;29;20830;-69
2022/08/23 04:27:58;;;;;;;25.07;11.77;;;;;;;23.71;100.00;100941.03;2047159;28;20290;-68
2022/08/23 04:28:59;;;;;;;13.00;9.83;;;;;;;23.85;100.00;100961.88;2054857;28;20205;-69
2022/08/23 04:29:59;;;;;;;15.00;9.80;;;;;;;23.86;100.00;100964.19;2054822;28;20183;-68
2022/08/23 04:31:01;;;;;;;12.87;9.90;;;;;;;23.85;100.00;100968.28;2055484;28;20183;-68
2022/08/23 04:32:02;;;;;;;16.93;9.90;;;;;;;23.41;100.00;100902.44;2055449;28;20198;-69
2022/08/23 04:33:03;;;;;;;16.73;9.90;;;;;;;23.87;100.00;100974.22;2056196;28;20547;-69
2022/08/23 04:34:04;;;;;;;14.53;10.03;;;;;;;23.92;100.00;100978.34;2054744;28;20225;-69
2022/08/23 04:35:05;;;;;;;13.50;9.40;;;;;;;23.92;100.00;100986.84;2055088;28;20242;-69
2022/08/23 04:36:06;;;;;;;15.87;9.43;;;;;;;23.99;100.00;100978.59;2054499;28;20265;-69
2022/08/23 04:37:09;;;;;;;13.83;9.70;;;;;;;23.72;100.00;100948.22;2054869;28;20254;-69
2022/08/23 04:38:10;;;;;;;13.03;9.73;;;;;;;24.01;100.00;100987.34;2053930;28;20783;-69
2022/08/23 04:39:11;;;;;;;12.73;9.60;;;;;;;23.86;100.00;100954.91;2054870;28;20183;-69
2022/08/23 04:42:51;;;;;;;20.23;10.43;;;;;;;24.11;100.00;100999.94;2055141;28;20179;-69
2022/08/23 04:43:51;;;;;;;15.87;12.10;;;;;;;24.15;100.00;101022.34;2054519;28;20191;-68
2022/08/23 04:44:52;;;;;;;25.57;14.33;;;;;;;24.15;100.00;101025.19;2054728;28;20195;-67
2022/08/23 04:45:52;;;;;;;41.17;15.37;;;;;;;24.18;100.00;101044.75;2054106;28;20193;-68
2022/08/23 04:46:53;;;;;;;27.23;13.83;;;;;;;23.75;100.00;100986.06;2054845;28;20195;-68
2022/08/23 04:47:54;;;;;;;29.83;14.50;;;;;;;24.13;100.00;101056.84;2055182;28;20334;-68